DLH55R EDDH-EDDS
Flight info
| Callsign | DLH55R |
|---|---|
| Flight time | 1h 1m |
| Altitude | 34000 |
| Route | AMLUH2C AMLUH M852 DENIX Z113 SAS P605 TOSTU T726 LBU |
| Aircraft | A320/M-SDE3FGHIRWY/LB1 |
Departure
| Time | 2026-04-20 23:03 |
|---|---|
| Airport | Hamburg Helmut Schmidt Airport (EDDH) |
Arrival
| Time | 2026-04-21 00:04 |
|---|---|
| Airport | Stuttgart Airport (EDDS) |
| Time | Latitude | Longitude | Altitude | Speed | Heading |
|---|---|---|---|---|---|
| 2026-04-20 22:24 | 53.63208 | 10.00365 | 51 ft | 0 kts | 87° |
| 2026-04-20 22:51 | 53.63207 | 10.00346 | 51 ft | 4 kts | 87° |
| 2026-04-20 22:52 | 53.63206 | 10.00300 | 51 ft | 4 kts | 87° |
| 2026-04-20 22:52 | 53.63205 | 10.00266 | 51 ft | 4 kts | 113° |
| 2026-04-20 22:52 | 53.63221 | 10.00246 | 44 ft | 3 kts | 176° |
| 2026-04-20 22:52 | 53.63231 | 10.00245 | 49 ft | 0 kts | 176° |
| 2026-04-20 22:56 | 53.63188 | 10.00250 | 48 ft | 13 kts | 176° |
| 2026-04-20 22:57 | 53.63105 | 10.00260 | 51 ft | 11 kts | 176° |
| 2026-04-20 22:57 | 53.63037 | 10.00229 | 51 ft | 10 kts | 210° |
| 2026-04-20 22:57 | 53.62984 | 10.00173 | 50 ft | 8 kts | 213° |
| 2026-04-20 22:57 | 53.62939 | 10.00123 | 51 ft | 7 kts | 213° |
| 2026-04-20 22:58 | 53.62899 | 10.00079 | 49 ft | 6 kts | 213° |
| 2026-04-20 22:58 | 53.62865 | 10.00035 | 50 ft | 8 kts | 228° |
| 2026-04-20 22:58 | 53.62825 | 9.99982 | 50 ft | 7 kts | 209° |
| 2026-04-20 22:58 | 53.62786 | 9.99945 | 50 ft | 6 kts | 209° |
| 2026-04-20 22:59 | 53.62749 | 9.99910 | 49 ft | 7 kts | 208° |
| 2026-04-20 22:59 | 53.62681 | 9.99849 | 49 ft | 12 kts | 210° |
| 2026-04-20 22:59 | 53.62638 | 9.99749 | 50 ft | 9 kts | 254° |
| 2026-04-20 22:59 | 53.62626 | 9.99645 | 50 ft | 12 kts | 259° |
| 2026-04-20 23:00 | 53.62599 | 9.99406 | 50 ft | 24 kts | 259° |
| 2026-04-20 23:00 | 53.62569 | 9.99142 | 51 ft | 23 kts | 259° |
| 2026-04-20 23:00 | 53.62538 | 9.98873 | 51 ft | 24 kts | 259° |
| 2026-04-20 23:00 | 53.62505 | 9.98587 | 48 ft | 26 kts | 259° |
| 2026-04-20 23:01 | 53.62472 | 9.98298 | 50 ft | 21 kts | 259° |
| 2026-04-20 23:01 | 53.62447 | 9.98079 | 49 ft | 20 kts | 259° |
| 2026-04-20 23:01 | 53.62428 | 9.97907 | 50 ft | 10 kts | 261° |
| 2026-04-20 23:01 | 53.62452 | 9.97813 | 48 ft | 10 kts | 321° |
| 2026-04-20 23:02 | 53.62519 | 9.97792 | 47 ft | 10 kts | 18° |
| 2026-04-20 23:02 | 53.62569 | 9.97876 | 48 ft | 15 kts | 51° |
| 2026-04-20 23:02 | 53.62809 | 9.98361 | 50 ft | 91 kts | 50° |
| 2026-04-20 23:02 | 53.63343 | 9.99438 | 94 ft | 144 kts | 50° |
| 2026-04-20 23:03 | 53.63968 | 10.00721 | 854 ft | 138 kts | 51° |
| 2026-04-20 23:03 | 53.64583 | 10.01973 | 1496 ft | 145 kts | 54° |
| 2026-04-20 23:03 | 53.65262 | 10.03365 | 1830 ft | 163 kts | 56° |
| 2026-04-20 23:03 | 53.66020 | 10.04922 | 2233 ft | 179 kts | 55° |
| 2026-04-20 23:04 | 53.66826 | 10.06571 | 2845 ft | 184 kts | 54° |
| 2026-04-20 23:04 | 53.67644 | 10.08238 | 3611 ft | 188 kts | 54° |
| 2026-04-20 23:04 | 53.68488 | 10.09957 | 4364 ft | 193 kts | 54° |
| 2026-04-20 23:04 | 53.69354 | 10.11723 | 5121 ft | 197 kts | 54° |
| 2026-04-20 23:05 | 53.70107 | 10.13665 | 5834 ft | 200 kts | 70° |
| 2026-04-20 23:05 | 53.70332 | 10.15998 | 6551 ft | 205 kts | 93° |
| 2026-04-20 23:05 | 53.69934 | 10.18344 | 7203 ft | 216 kts | 116° |
| 2026-04-20 23:05 | 53.68863 | 10.20321 | 7613 ft | 243 kts | 143° |
| 2026-04-20 23:06 | 53.67215 | 10.21401 | 8029 ft | 270 kts | 161° |
| 2026-04-20 23:06 | 53.65360 | 10.22232 | 8740 ft | 278 kts | 161° |
| 2026-04-20 23:06 | 53.63468 | 10.23062 | 9569 ft | 284 kts | 161° |
| 2026-04-20 23:06 | 53.61539 | 10.23904 | 10387 ft | 289 kts | 161° |
| 2026-04-20 23:07 | 53.59522 | 10.24797 | 10737 ft | 311 kts | 161° |
| 2026-04-20 23:07 | 53.57362 | 10.25769 | 11137 ft | 328 kts | 161° |
| 2026-04-20 23:07 | 53.55135 | 10.26771 | 11846 ft | 334 kts | 161° |
| 2026-04-20 23:07 | 53.52876 | 10.27782 | 12626 ft | 337 kts | 161° |
| 2026-04-20 23:08 | 53.50596 | 10.28806 | 13385 ft | 341 kts | 161° |
| 2026-04-20 23:08 | 53.48283 | 10.29843 | 14130 ft | 345 kts | 161° |
| 2026-04-20 23:08 | 53.45974 | 10.30873 | 14765 ft | 349 kts | 161° |
| 2026-04-20 23:08 | 53.43606 | 10.31931 | 15395 ft | 352 kts | 161° |
| 2026-04-20 23:09 | 53.41220 | 10.33002 | 16046 ft | 356 kts | 161° |
| 2026-04-20 23:09 | 53.38816 | 10.34089 | 16672 ft | 360 kts | 160° |
| 2026-04-20 23:09 | 53.36376 | 10.35191 | 17298 ft | 364 kts | 160° |
| 2026-04-20 23:09 | 53.33910 | 10.36303 | 17923 ft | 368 kts | 160° |
| 2026-04-20 23:10 | 53.31456 | 10.37410 | 18545 ft | 372 kts | 160° |
| 2026-04-20 23:10 | 53.28942 | 10.38543 | 19094 ft | 375 kts | 161° |
| 2026-04-20 23:10 | 53.26409 | 10.39675 | 19649 ft | 378 kts | 161° |
| 2026-04-20 23:10 | 53.23846 | 10.40817 | 20204 ft | 381 kts | 161° |
| 2026-04-20 23:11 | 53.21267 | 10.41964 | 20747 ft | 384 kts | 161° |
| 2026-04-20 23:11 | 53.18703 | 10.43100 | 21263 ft | 388 kts | 161° |
| 2026-04-20 23:11 | 53.16082 | 10.44263 | 21790 ft | 390 kts | 161° |
| 2026-04-20 23:11 | 53.13407 | 10.45243 | 22295 ft | 396 kts | 169° |
| 2026-04-20 23:12 | 53.10624 | 10.45500 | 22811 ft | 403 kts | 179° |
| 2026-04-20 23:12 | 53.07804 | 10.45228 | 23304 ft | 406 kts | 181° |
| 2026-04-20 23:12 | 53.04967 | 10.44934 | 23804 ft | 409 kts | 181° |
| 2026-04-20 23:12 | 53.02150 | 10.44643 | 24210 ft | 412 kts | 181° |
| 2026-04-20 23:13 | 52.99265 | 10.44346 | 24624 ft | 415 kts | 181° |
| 2026-04-20 23:13 | 52.96379 | 10.44050 | 25025 ft | 417 kts | 181° |
| 2026-04-20 23:13 | 52.93470 | 10.43759 | 25426 ft | 419 kts | 181° |
| 2026-04-20 23:13 | 52.90554 | 10.43473 | 25827 ft | 421 kts | 181° |
| 2026-04-20 23:14 | 52.87618 | 10.43189 | 26213 ft | 423 kts | 181° |
| 2026-04-20 23:14 | 52.84654 | 10.42902 | 26607 ft | 426 kts | 181° |
| 2026-04-20 23:14 | 52.81723 | 10.42614 | 26984 ft | 428 kts | 181° |
| 2026-04-20 23:14 | 52.78741 | 10.42321 | 27360 ft | 430 kts | 181° |
| 2026-04-20 23:15 | 52.75746 | 10.42025 | 27749 ft | 432 kts | 182° |
| 2026-04-20 23:15 | 52.72759 | 10.41289 | 28114 ft | 437 kts | 192° |
| 2026-04-20 23:15 | 52.69857 | 10.39743 | 28483 ft | 440 kts | 202° |
| 2026-04-20 23:15 | 52.67127 | 10.37418 | 28829 ft | 444 kts | 212° |
| 2026-04-20 23:16 | 52.64589 | 10.34479 | 29187 ft | 446 kts | 215° |
| 2026-04-20 23:16 | 52.62061 | 10.31475 | 29542 ft | 448 kts | 215° |
| 2026-04-20 23:16 | 52.59520 | 10.28480 | 29912 ft | 450 kts | 215° |
| 2026-04-20 23:16 | 52.56954 | 10.25479 | 30256 ft | 452 kts | 215° |
| 2026-04-20 23:17 | 52.54413 | 10.22515 | 30570 ft | 453 kts | 215° |
| 2026-04-20 23:17 | 52.51835 | 10.19507 | 30854 ft | 455 kts | 215° |
| 2026-04-20 23:17 | 52.49247 | 10.16487 | 31119 ft | 457 kts | 215° |
| 2026-04-20 23:17 | 52.46642 | 10.13452 | 31379 ft | 458 kts | 215° |
| 2026-04-20 23:18 | 52.44031 | 10.10412 | 31631 ft | 460 kts | 215° |
| 2026-04-20 23:18 | 52.41418 | 10.07367 | 31952 ft | 460 kts | 215° |
| 2026-04-20 23:18 | 52.38834 | 10.04358 | 32320 ft | 459 kts | 215° |
| 2026-04-20 23:18 | 52.36227 | 10.01326 | 32666 ft | 459 kts | 215° |
| 2026-04-20 23:19 | 52.33624 | 9.98300 | 33008 ft | 458 kts | 216° |
| 2026-04-20 23:19 | 52.31010 | 9.95268 | 33387 ft | 457 kts | 216° |
| 2026-04-20 23:19 | 52.28403 | 9.92301 | 33756 ft | 456 kts | 212° |
| 2026-04-20 23:19 | 52.25641 | 9.89902 | 34099 ft | 456 kts | 203° |
| 2026-04-20 23:20 | 52.22642 | 9.88214 | 34240 ft | 455 kts | 194° |
| 2026-04-20 23:20 | 52.19551 | 9.87320 | 34256 ft | 447 kts | 186° |
| 2026-04-20 23:20 | 52.13398 | 9.86144 | 34243 ft | 443 kts | 186° |
| 2026-04-20 23:21 | 52.07301 | 9.84944 | 34246 ft | 442 kts | 187° |
| 2026-04-20 23:21 | 52.01193 | 9.83742 | 34242 ft | 442 kts | 187° |
| 2026-04-20 23:22 | 51.95112 | 9.82570 | 34236 ft | 442 kts | 187° |
| 2026-04-20 23:22 | 51.88990 | 9.81393 | 34236 ft | 442 kts | 187° |
| 2026-04-20 23:23 | 51.82920 | 9.80225 | 34234 ft | 442 kts | 187° |
| 2026-04-20 23:23 | 51.76810 | 9.79051 | 34231 ft | 442 kts | 187° |
| 2026-04-20 23:24 | 51.70720 | 9.77886 | 34228 ft | 441 kts | 187° |
| 2026-04-20 23:24 | 51.64610 | 9.76727 | 34227 ft | 441 kts | 187° |
| 2026-04-20 23:25 | 51.58536 | 9.75583 | 34219 ft | 442 kts | 188° |
| 2026-04-20 23:25 | 51.52415 | 9.74436 | 34216 ft | 442 kts | 188° |
| 2026-04-20 23:26 | 51.46292 | 9.73288 | 34213 ft | 442 kts | 187° |
| 2026-04-20 23:26 | 51.40201 | 9.72245 | 34213 ft | 442 kts | 187° |
| 2026-04-20 23:27 | 51.34062 | 9.71285 | 34207 ft | 443 kts | 187° |
| 2026-04-20 23:27 | 51.27915 | 9.70315 | 34209 ft | 443 kts | 187° |
| 2026-04-20 23:28 | 51.21800 | 9.69329 | 34208 ft | 444 kts | 187° |
| 2026-04-20 23:28 | 51.15613 | 9.69252 | 34203 ft | 445 kts | 181° |
| 2026-04-20 23:29 | 51.09408 | 9.69449 | 34199 ft | 446 kts | 181° |
| 2026-04-20 23:29 | 51.03182 | 9.69637 | 34200 ft | 446 kts | 181° |
| 2026-04-20 23:30 | 50.96996 | 9.69828 | 34205 ft | 447 kts | 181° |
| 2026-04-20 23:30 | 50.90773 | 9.70023 | 34199 ft | 447 kts | 181° |
| 2026-04-20 23:31 | 50.84545 | 9.70290 | 34205 ft | 447 kts | 179° |
| 2026-04-20 23:31 | 50.78350 | 9.70923 | 34207 ft | 448 kts | 178° |
| 2026-04-20 23:32 | 50.72119 | 9.71684 | 34201 ft | 448 kts | 178° |
| 2026-04-20 23:32 | 50.65940 | 9.72367 | 34190 ft | 445 kts | 178° |
| 2026-04-20 23:33 | 50.59752 | 9.72992 | 34184 ft | 445 kts | 179° |
| 2026-04-20 23:33 | 50.54612 | 9.73502 | 34179 ft | 447 kts | 178° |
| 2026-04-20 23:34 | 50.47307 | 9.74238 | 34222 ft | 452 kts | 178° |
| 2026-04-20 23:34 | 50.42090 | 9.74773 | 34210 ft | 451 kts | 179° |
| 2026-04-20 23:35 | 50.32707 | 9.75732 | 34208 ft | 449 kts | 179° |
| 2026-04-20 23:36 | 50.26464 | 9.76351 | 34189 ft | 448 kts | 179° |
| 2026-04-20 23:36 | 50.20270 | 9.76968 | 34183 ft | 448 kts | 179° |
| 2026-04-20 23:37 | 50.14031 | 9.77594 | 34177 ft | 448 kts | 179° |
| 2026-04-20 23:37 | 50.07839 | 9.78211 | 34165 ft | 448 kts | 179° |
| 2026-04-20 23:38 | 50.01610 | 9.78743 | 34160 ft | 448 kts | 180° |
| 2026-04-20 23:38 | 49.95379 | 9.79104 | 34140 ft | 448 kts | 181° |
| 2026-04-20 23:39 | 49.89149 | 9.79445 | 34139 ft | 448 kts | 181° |
| 2026-04-20 23:39 | 49.82938 | 9.79838 | 34143 ft | 448 kts | 181° |
| 2026-04-20 23:40 | 49.76693 | 9.80249 | 34128 ft | 448 kts | 181° |
| 2026-04-20 23:40 | 49.70485 | 9.80650 | 34129 ft | 449 kts | 182° |
| 2026-04-20 23:41 | 49.64230 | 9.80958 | 34134 ft | 448 kts | 182° |
| 2026-04-20 23:41 | 49.57999 | 9.81846 | 34141 ft | 453 kts | 173° |
| 2026-04-20 23:42 | 49.51807 | 9.83560 | 34125 ft | 453 kts | 174° |
| 2026-04-20 23:42 | 49.45585 | 9.85290 | 34088 ft | 454 kts | 174° |
| 2026-04-20 23:42 | 49.42479 | 9.86151 | 33814 ft | 450 kts | 174° |
| 2026-04-20 23:43 | 49.39409 | 9.86997 | 33438 ft | 445 kts | 174° |
| 2026-04-20 23:43 | 49.36365 | 9.87832 | 32863 ft | 443 kts | 174° |
| 2026-04-20 23:43 | 49.33367 | 9.88652 | 32319 ft | 441 kts | 174° |
| 2026-04-20 23:43 | 49.30348 | 9.89476 | 31762 ft | 438 kts | 174° |
| 2026-04-20 23:44 | 49.27351 | 9.90299 | 31237 ft | 436 kts | 174° |
| 2026-04-20 23:44 | 49.24361 | 9.91051 | 30689 ft | 431 kts | 180° |
| 2026-04-20 23:44 | 49.21418 | 9.90845 | 30181 ft | 417 kts | 197° |
| 2026-04-20 23:44 | 49.18759 | 9.89472 | 29632 ft | 401 kts | 213° |
| 2026-04-20 23:45 | 49.16493 | 9.87123 | 29203 ft | 385 kts | 227° |
| 2026-04-20 23:45 | 49.14771 | 9.84089 | 28767 ft | 371 kts | 242° |
| 2026-04-20 23:45 | 49.13636 | 9.80632 | 28358 ft | 359 kts | 253° |
| 2026-04-20 23:45 | 49.12788 | 9.77076 | 27961 ft | 353 kts | 253° |
| 2026-04-20 23:46 | 49.11954 | 9.73618 | 27564 ft | 348 kts | 253° |
| 2026-04-20 23:46 | 49.11114 | 9.70169 | 27169 ft | 343 kts | 254° |
| 2026-04-20 23:46 | 49.10290 | 9.66790 | 26789 ft | 337 kts | 254° |
| 2026-04-20 23:46 | 49.09476 | 9.63449 | 26388 ft | 333 kts | 254° |
| 2026-04-20 23:47 | 49.08672 | 9.60149 | 25999 ft | 329 kts | 254° |
| 2026-04-20 23:47 | 49.07873 | 9.56881 | 25604 ft | 326 kts | 254° |
| 2026-04-20 23:47 | 49.06922 | 9.53768 | 25210 ft | 337 kts | 239° |
| 2026-04-20 23:47 | 49.05223 | 9.51211 | 24815 ft | 352 kts | 218° |
| 2026-04-20 23:48 | 49.02943 | 9.49736 | 24418 ft | 364 kts | 196° |
| 2026-04-20 23:48 | 49.00395 | 9.49572 | 24046 ft | 372 kts | 176° |
| 2026-04-20 23:48 | 48.97876 | 9.50602 | 23657 ft | 376 kts | 164° |
| 2026-04-20 23:48 | 48.95411 | 9.51891 | 23203 ft | 374 kts | 164° |
| 2026-04-20 23:49 | 48.92962 | 9.53176 | 22750 ft | 371 kts | 164° |
| 2026-04-20 23:49 | 48.90522 | 9.54458 | 22283 ft | 369 kts | 165° |
| 2026-04-20 23:49 | 48.88122 | 9.55710 | 21851 ft | 369 kts | 166° |
| 2026-04-20 23:49 | 48.85694 | 9.56969 | 21424 ft | 368 kts | 166° |
| 2026-04-20 23:50 | 48.83276 | 9.58218 | 21002 ft | 366 kts | 166° |
| 2026-04-20 23:50 | 48.80860 | 9.59464 | 20582 ft | 364 kts | 165° |
| 2026-04-20 23:50 | 48.78471 | 9.60698 | 20170 ft | 361 kts | 165° |
| 2026-04-20 23:50 | 48.76095 | 9.61929 | 19770 ft | 359 kts | 165° |
| 2026-04-20 23:51 | 48.73723 | 9.63145 | 19129 ft | 361 kts | 167° |
| 2026-04-20 23:51 | 48.71300 | 9.63644 | 18255 ft | 352 kts | 189° |
| 2026-04-20 23:51 | 48.68989 | 9.62741 | 17386 ft | 338 kts | 211° |
| 2026-04-20 23:51 | 48.67137 | 9.60686 | 16539 ft | 325 kts | 232° |
| 2026-04-20 23:52 | 48.65939 | 9.57864 | 15729 ft | 315 kts | 251° |
| 2026-04-20 23:52 | 48.65357 | 9.54703 | 14912 ft | 311 kts | 259° |
| 2026-04-20 23:52 | 48.64865 | 9.51526 | 14137 ft | 309 kts | 259° |
| 2026-04-20 23:52 | 48.64376 | 9.48370 | 13325 ft | 307 kts | 259° |
| 2026-04-20 23:53 | 48.63895 | 9.45280 | 12650 ft | 301 kts | 258° |
| 2026-04-20 23:53 | 48.63419 | 9.42260 | 12269 ft | 287 kts | 258° |
| 2026-04-20 23:53 | 48.62965 | 9.39393 | 11929 ft | 274 kts | 258° |
| 2026-04-20 23:53 | 48.62531 | 9.36649 | 11592 ft | 262 kts | 258° |
| 2026-04-20 23:54 | 48.62115 | 9.34012 | 11264 ft | 255 kts | 258° |
| 2026-04-20 23:54 | 48.61706 | 9.31426 | 10946 ft | 257 kts | 258° |
| 2026-04-20 23:54 | 48.61292 | 9.28796 | 10608 ft | 257 kts | 258° |
| 2026-04-20 23:54 | 48.60879 | 9.26172 | 10270 ft | 256 kts | 258° |
| 2026-04-20 23:55 | 48.60466 | 9.23546 | 9913 ft | 255 kts | 258° |
| 2026-04-20 23:55 | 48.60053 | 9.20936 | 9553 ft | 254 kts | 258° |
| 2026-04-20 23:55 | 48.59647 | 9.18381 | 9207 ft | 252 kts | 258° |
| 2026-04-20 23:55 | 48.59238 | 9.15810 | 8863 ft | 251 kts | 258° |
| 2026-04-20 23:56 | 48.58828 | 9.13241 | 8502 ft | 249 kts | 258° |
| 2026-04-20 23:56 | 48.58420 | 9.10701 | 8147 ft | 248 kts | 258° |
| 2026-04-20 23:56 | 48.58016 | 9.08205 | 7796 ft | 247 kts | 258° |
| 2026-04-20 23:56 | 48.57609 | 9.05690 | 7421 ft | 247 kts | 257° |
| 2026-04-20 23:57 | 48.57202 | 9.03169 | 7052 ft | 246 kts | 257° |
| 2026-04-20 23:57 | 48.56797 | 9.00649 | 6677 ft | 246 kts | 257° |
| 2026-04-20 23:57 | 48.56486 | 8.98109 | 6273 ft | 246 kts | 270° |
| 2026-04-20 23:57 | 48.56793 | 8.95600 | 5886 ft | 243 kts | 294° |
| 2026-04-20 23:58 | 48.57738 | 8.93513 | 5586 ft | 236 kts | 319° |
| 2026-04-20 23:58 | 48.59051 | 8.92219 | 5484 ft | 225 kts | 340° |
| 2026-04-20 23:58 | 48.60549 | 8.91527 | 5380 ft | 224 kts | 345° |
| 2026-04-20 23:58 | 48.62076 | 8.91357 | 5211 ft | 217 kts | 19° |
| 2026-04-20 23:59 | 48.63220 | 8.92646 | 5071 ft | 208 kts | 61° |
| 2026-04-20 23:59 | 48.63716 | 8.94637 | 4864 ft | 196 kts | 73° |
| 2026-04-20 23:59 | 48.64083 | 8.96545 | 4590 ft | 182 kts | 74° |
| 2026-04-20 23:59 | 48.64418 | 8.98306 | 4363 ft | 167 kts | 73° |
| 2026-04-21 00:00 | 48.64726 | 8.99922 | 4110 ft | 153 kts | 73° |
| 2026-04-21 00:00 | 48.65011 | 9.01409 | 3919 ft | 142 kts | 73° |
| 2026-04-21 00:00 | 48.65282 | 9.02813 | 3729 ft | 137 kts | 73° |
| 2026-04-21 00:00 | 48.65546 | 9.04184 | 3560 ft | 136 kts | 73° |
| 2026-04-21 00:01 | 48.65805 | 9.05543 | 3395 ft | 134 kts | 73° |
| 2026-04-21 00:01 | 48.66066 | 9.06899 | 3199 ft | 134 kts | 73° |
| 2026-04-21 00:01 | 48.66328 | 9.08260 | 3006 ft | 134 kts | 73° |
| 2026-04-21 00:01 | 48.66590 | 9.09621 | 2818 ft | 136 kts | 72° |
| 2026-04-21 00:02 | 48.66851 | 9.10986 | 2596 ft | 138 kts | 72° |
| 2026-04-21 00:02 | 48.67121 | 9.12394 | 2395 ft | 139 kts | 72° |
| 2026-04-21 00:02 | 48.67388 | 9.13796 | 2203 ft | 138 kts | 72° |
| 2026-04-21 00:02 | 48.67658 | 9.15198 | 2027 ft | 138 kts | 72° |
| 2026-04-21 00:03 | 48.67927 | 9.16607 | 1845 ft | 139 kts | 72° |
| 2026-04-21 00:03 | 48.68191 | 9.17998 | 1668 ft | 139 kts | 72° |
| 2026-04-21 00:03 | 48.68458 | 9.19408 | 1464 ft | 137 kts | 72° |
| 2026-04-21 00:03 | 48.68719 | 9.20789 | 1288 ft | 134 kts | 72° |
| 2026-04-21 00:04 | 48.68946 | 9.21967 | 1242 ft | 93 kts | 74° |
| 2026-04-21 00:04 | 48.69071 | 9.22629 | 1224 ft | 36 kts | 74° |
| 2026-04-21 00:04 | 48.69127 | 9.22876 | 1219 ft | 21 kts | 59° |
| 2026-04-21 00:04 | 48.69199 | 9.23002 | 1217 ft | 14 kts | 44° |
| 2026-04-21 00:05 | 48.69271 | 9.23107 | 1217 ft | 12 kts | 43° |
| 2026-04-21 00:05 | 48.69343 | 9.23161 | 1219 ft | 11 kts | 0° |
| 2026-04-21 00:05 | 48.69401 | 9.23107 | 1223 ft | 8 kts | 300° |
| 2026-04-21 00:05 | 48.69407 | 9.23039 | 1225 ft | 8 kts | 266° |
| 2026-04-21 00:06 | 48.69393 | 9.22954 | 1227 ft | 7 kts | 253° |
| 2026-04-21 00:06 | 48.69377 | 9.22873 | 1228 ft | 15 kts | 254° |
| 2026-04-21 00:06 | 48.69338 | 9.22668 | 1232 ft | 21 kts | 254° |
| 2026-04-21 00:06 | 48.69298 | 9.22456 | 1241 ft | 21 kts | 254° |
| 2026-04-21 00:07 | 48.69259 | 9.22250 | 1252 ft | 20 kts | 254° |
| 2026-04-21 00:07 | 48.69222 | 9.22055 | 1246 ft | 19 kts | 254° |
| 2026-04-21 00:07 | 48.69186 | 9.21866 | 1256 ft | 18 kts | 254° |
| 2026-04-21 00:07 | 48.69152 | 9.21686 | 1255 ft | 17 kts | 254° |
| 2026-04-21 00:08 | 48.69121 | 9.21521 | 1259 ft | 15 kts | 254° |
| 2026-04-21 00:08 | 48.69095 | 9.21384 | 1265 ft | 13 kts | 254° |
| 2026-04-21 00:08 | 48.69057 | 9.21185 | 1270 ft | 24 kts | 254° |
| 2026-04-21 00:08 | 48.69011 | 9.20945 | 1272 ft | 23 kts | 254° |
| 2026-04-21 00:09 | 48.68968 | 9.20714 | 1278 ft | 22 kts | 254° |
| 2026-04-21 00:09 | 48.68926 | 9.20493 | 1284 ft | 21 kts | 253° |
| 2026-04-21 00:09 | 48.68886 | 9.20282 | 1289 ft | 20 kts | 255° |
| 2026-04-21 00:09 | 48.68848 | 9.20085 | 1293 ft | 16 kts | 253° |
| 2026-04-21 00:10 | 48.68821 | 9.19983 | 1295 ft | 8 kts | 239° |
| 2026-04-21 00:10 | 48.68817 | 9.19918 | 1297 ft | 6 kts | 296° |
| 2026-04-21 00:10 | 48.68855 | 9.19888 | 1300 ft | 6 kts | 344° |
| 2026-04-21 00:10 | 48.68887 | 9.19866 | 1303 ft | 8 kts | 315° |
| 2026-04-21 00:11 | 48.68883 | 9.19785 | 1305 ft | 6 kts | 252° |
| 2026-04-21 00:11 | 48.68870 | 9.19716 | 1307 ft | 14 kts | 253° |
| 2026-04-21 00:11 | 48.68856 | 9.19623 | 1309 ft | 5 kts | 278° |
| 2026-04-21 00:11 | 48.68865 | 9.19608 | 1310 ft | 1 kts | 323° |
| 2026-04-21 00:12 | 48.68889 | 9.19595 | 1312 ft | 3 kts | 344° |
| 2026-04-21 00:12 | 48.68896 | 9.19592 | 1312 ft | 4 kts | 346° |
| 2026-04-21 00:12 | 48.68902 | 9.19590 | 1313 ft | 0 kts | 346° |
| 2026-04-21 00:12 | 48.68909 | 9.19587 | 1313 ft | 0 kts | 345° |
| 2026-04-21 00:13 | 48.68921 | 9.19582 | 1314 ft | 0 kts | 344° |
| 2026-04-21 00:13 | 48.68924 | 9.19581 | 1314 ft | 0 kts | 344° |